createdAt,value
2018-11-09T00:00:14.046Z,956.58
2018-11-09T00:01:14.047Z,956.55
2018-11-09T00:02:14.052Z,956.58
2018-11-09T00:03:14.053Z,956.59
2018-11-09T00:04:14.055Z,956.55
2018-11-09T00:05:14.060Z,956.54
2018-11-09T00:06:14.060Z,956.5
2018-11-09T00:07:14.062Z,956.53
2018-11-09T00:08:14.215Z,956.58
2018-11-09T00:09:14.068Z,956.53
2018-11-09T00:10:14.071Z,956.52
2018-11-09T00:11:14.070Z,956.55
2018-11-09T00:12:14.073Z,956.59
2018-11-09T00:13:14.074Z,956.61
2018-11-09T00:14:14.082Z,956.6
2018-11-09T00:15:14.080Z,956.57
2018-11-09T00:16:14.088Z,956.6
2018-11-09T00:17:14.085Z,956.59
2018-11-09T00:18:14.085Z,956.57
2018-11-09T00:19:14.091Z,956.56
2018-11-09T00:20:14.090Z,956.53
2018-11-09T00:21:14.092Z,956.56
2018-11-09T00:22:14.094Z,956.57
2018-11-09T00:23:14.145Z,956.56
2018-11-09T00:24:14.099Z,956.58
2018-11-09T00:25:14.101Z,956.56
2018-11-09T00:26:14.103Z,956.51
2018-11-09T00:27:14.105Z,956.52
2018-11-09T00:28:14.164Z,956.53
2018-11-09T00:29:14.109Z,956.53
2018-11-09T00:30:14.111Z,956.57
2018-11-09T00:31:14.113Z,956.55
2018-11-09T00:32:14.118Z,956.57
2018-11-09T00:33:14.118Z,956.6
2018-11-09T00:34:14.123Z,956.6
2018-11-09T00:35:14.125Z,956.61
2018-11-09T00:36:14.125Z,956.61
2018-11-09T00:37:14.126Z,956.63
2018-11-09T00:38:14.133Z,956.65
2018-11-09T00:39:14.131Z,956.68
2018-11-09T00:40:14.138Z,956.66
2018-11-09T00:41:14.136Z,956.66
2018-11-09T00:42:14.139Z,956.7
2018-11-09T00:43:14.191Z,956.69
2018-11-09T00:44:14.141Z,956.72
2018-11-09T00:45:14.144Z,956.75
2018-11-09T00:46:14.147Z,956.77
2018-11-09T00:47:14.223Z,956.72
2018-11-09T00:48:14.150Z,956.66
2018-11-09T00:49:14.154Z,956.68
2018-11-09T00:50:14.156Z,956.68
2018-11-09T00:51:14.158Z,956.64
2018-11-09T00:52:14.160Z,956.56
2018-11-09T00:53:14.262Z,956.56
2018-11-09T00:54:14.166Z,956.54
2018-11-09T00:55:14.167Z,956.51
2018-11-09T00:56:14.237Z,956.51
2018-11-09T00:57:14.172Z,956.49
2018-11-09T00:58:14.577Z,956.47
2018-11-09T00:59:14.179Z,956.42
2018-11-09T01:00:14.179Z,956.39
2018-11-09T01:01:14.181Z,956.37
2018-11-09T01:02:14.183Z,956.34
2018-11-09T01:03:14.247Z,956.33
2018-11-09T01:04:14.187Z,956.3
2018-11-09T01:05:14.189Z,956.31
2018-11-09T01:06:14.196Z,956.24
2018-11-09T01:07:14.194Z,956.2
2018-11-09T01:08:14.196Z,956.15
2018-11-09T01:09:14.357Z,956.17
2018-11-09T01:10:14.202Z,956.16
2018-11-09T01:11:14.202Z,956.17
2018-11-09T01:12:14.205Z,956.15
2018-11-09T01:13:14.207Z,956.15
2018-11-09T01:14:14.209Z,956.12
2018-11-09T01:15:14.213Z,956.12
2018-11-09T01:16:14.214Z,956.15
2018-11-09T01:17:14.215Z,956.16
2018-11-09T01:18:14.267Z,956.19
2018-11-09T01:19:14.220Z,956.15
2018-11-09T01:20:14.224Z,956.14
2018-11-09T01:21:14.225Z,956.14
2018-11-09T01:22:14.228Z,956.16
2018-11-09T01:23:14.231Z,956.21
2018-11-09T01:24:14.231Z,956.22
2018-11-09T01:25:14.238Z,956.21
2018-11-09T01:26:14.240Z,956.2
2018-11-09T01:27:14.239Z,956.2
2018-11-09T01:28:14.239Z,956.25
2018-11-09T01:29:14.245Z,956.23
2018-11-09T01:30:14.244Z,956.27
2018-11-09T01:31:14.250Z,956.25
2018-11-09T01:32:14.286Z,956.25
2018-11-09T01:33:14.302Z,956.25
2018-11-09T01:34:14.255Z,956.27
2018-11-09T01:35:14.255Z,956.3
2018-11-09T01:36:14.258Z,956.25
2018-11-09T01:37:14.262Z,956.29
2018-11-09T01:38:14.263Z,956.32
2018-11-09T01:39:14.264Z,956.28
2018-11-09T01:40:14.268Z,956.29
2018-11-09T01:41:14.273Z,956.31
2018-11-09T01:42:14.273Z,956.27
2018-11-09T01:43:14.281Z,956.26
2018-11-09T01:44:14.280Z,956.24
2018-11-09T01:45:14.283Z,956.29
2018-11-09T01:46:14.285Z,956.26
2018-11-09T01:47:14.285Z,956.23
2018-11-09T01:48:14.337Z,956.26
2018-11-09T01:49:14.305Z,956.23
2018-11-09T01:50:14.292Z,956.23
2018-11-09T01:51:14.296Z,956.25
2018-11-09T01:52:14.299Z,956.21
2018-11-09T01:53:14.297Z,956.2
2018-11-09T01:54:14.301Z,956.21
2018-11-09T01:55:14.303Z,956.22
2018-11-09T01:56:14.305Z,956.23
2018-11-09T01:57:14.307Z,956.2
2018-11-09T01:58:14.360Z,956.19
2018-11-09T01:59:14.315Z,956.16
2018-11-09T02:00:14.316Z,956.14
2018-11-09T02:01:14.325Z,956.17
2018-11-09T02:02:14.318Z,956.15
2018-11-09T02:03:14.323Z,956.15
2018-11-09T02:04:14.324Z,956.19
2018-11-09T02:05:14.325Z,956.15
2018-11-09T02:06:14.327Z,956.16
2018-11-09T02:07:14.331Z,956.18
2018-11-09T02:08:14.332Z,956.23
2018-11-09T02:09:14.335Z,956.2
2018-11-09T02:10:14.405Z,956.2
2018-11-09T02:11:14.339Z,956.2
2018-11-09T02:12:14.341Z,956.22
2018-11-09T02:13:14.393Z,956.21
2018-11-09T02:14:14.347Z,956.26
2018-11-09T02:15:14.348Z,956.24
2018-11-09T02:16:14.351Z,956.33
2018-11-09T02:17:14.353Z,956.31
2018-11-09T02:18:14.355Z,956.32
2018-11-09T02:19:14.356Z,956.35
2018-11-09T02:20:14.359Z,956.33
2018-11-09T02:21:14.361Z,956.36
2018-11-09T02:22:14.364Z,956.35
2018-11-09T02:23:14.416Z,956.31
2018-11-09T02:24:14.369Z,956.36
2018-11-09T02:25:14.372Z,956.34
2018-11-09T02:26:14.377Z,956.37
2018-11-09T02:27:14.377Z,956.37
2018-11-09T02:28:14.378Z,956.32
2018-11-09T02:29:14.382Z,956.35
2018-11-09T02:30:14.385Z,956.34
2018-11-09T02:31:14.388Z,956.34
2018-11-09T02:32:14.387Z,956.37
2018-11-09T02:33:14.390Z,956.32
2018-11-09T02:34:14.392Z,956.36
2018-11-09T02:35:14.396Z,956.39
2018-11-09T02:36:14.397Z,956.42
2018-11-09T02:37:14.399Z,956.42
2018-11-09T02:38:14.450Z,956.4
2018-11-09T02:39:14.403Z,956.44
2018-11-09T02:40:14.405Z,956.45
2018-11-09T02:41:14.407Z,956.44
2018-11-09T02:42:14.409Z,956.37
2018-11-09T02:43:14.411Z,956.37
2018-11-09T02:44:14.425Z,956.37
2018-11-09T02:45:14.415Z,956.33
2018-11-09T02:46:14.419Z,956.36
2018-11-09T02:47:14.492Z,956.37
2018-11-09T02:48:14.424Z,956.38
2018-11-09T02:49:14.427Z,956.36
2018-11-09T02:50:14.430Z,956.34
2018-11-09T02:51:14.437Z,956.39
2018-11-09T02:52:14.433Z,956.4
2018-11-09T02:53:14.536Z,956.42
2018-11-09T02:54:14.438Z,956.45
2018-11-09T02:55:14.440Z,956.47
2018-11-09T02:56:14.443Z,956.42
2018-11-09T02:57:14.447Z,956.47
2018-11-09T02:58:14.448Z,956.48
2018-11-09T02:59:14.448Z,956.49
2018-11-09T03:00:14.455Z,956.49
2018-11-09T03:01:14.467Z,956.54
2018-11-09T03:02:14.458Z,956.57
2018-11-09T03:03:14.459Z,956.63
2018-11-09T03:04:14.461Z,956.62
2018-11-09T03:05:14.462Z,956.64
2018-11-09T03:06:14.466Z,956.64
2018-11-09T03:07:14.467Z,956.69
2018-11-09T03:08:14.520Z,956.68
2018-11-09T03:09:14.471Z,956.67
2018-11-09T03:10:14.477Z,956.68
2018-11-09T03:11:14.476Z,956.67
2018-11-09T03:12:14.477Z,956.59
2018-11-09T03:13:14.529Z,956.58
2018-11-09T03:14:14.481Z,956.57
2018-11-09T03:15:14.486Z,956.54
2018-11-09T03:16:14.492Z,956.52
2018-11-09T03:17:14.489Z,956.53
2018-11-09T03:18:14.501Z,956.56
2018-11-09T03:19:14.494Z,956.56
2018-11-09T03:20:14.497Z,956.62
2018-11-09T03:21:14.499Z,956.62
2018-11-09T03:22:14.499Z,956.61
2018-11-09T03:23:14.553Z,956.6
2018-11-09T03:24:14.503Z,956.53
2018-11-09T03:25:14.506Z,956.53
2018-11-09T03:26:14.507Z,956.56
2018-11-09T03:27:14.511Z,956.54
2018-11-09T03:28:14.512Z,956.52
2018-11-09T03:29:14.516Z,956.53
2018-11-09T03:30:14.585Z,956.49
2018-11-09T03:31:14.519Z,956.49
2018-11-09T03:32:14.522Z,956.46
2018-11-09T03:33:14.523Z,956.51
2018-11-09T03:34:14.525Z,956.48
2018-11-09T03:35:14.529Z,956.45
2018-11-09T03:36:14.529Z,956.46
2018-11-09T03:37:14.531Z,956.47
2018-11-09T03:38:14.635Z,956.49
2018-11-09T03:39:14.535Z,956.52
2018-11-09T03:40:14.537Z,956.54
2018-11-09T03:41:14.540Z,956.6
2018-11-09T03:42:14.542Z,956.53
2018-11-09T03:43:14.643Z,956.56
2018-11-09T03:44:14.546Z,956.64
2018-11-09T03:45:14.548Z,956.63
2018-11-09T03:46:14.549Z,956.64
2018-11-09T03:47:14.552Z,956.68
2018-11-09T03:48:14.654Z,956.59
2018-11-09T03:49:14.555Z,956.61
2018-11-09T03:50:14.569Z,956.62
2018-11-09T03:51:14.559Z,956.63
2018-11-09T03:52:14.562Z,956.62
2018-11-09T03:53:14.564Z,956.6
2018-11-09T03:54:14.564Z,956.64
2018-11-09T03:55:14.567Z,956.63
2018-11-09T03:56:14.569Z,956.64
2018-11-09T03:57:14.571Z,956.67
2018-11-09T03:58:14.624Z,956.68
2018-11-09T03:59:14.576Z,956.67
2018-11-09T04:00:14.577Z,956.68
2018-11-09T04:01:14.579Z,956.7
2018-11-09T04:02:14.579Z,956.64
2018-11-09T04:03:14.581Z,956.7
2018-11-09T04:04:14.585Z,956.68
2018-11-09T04:05:14.586Z,956.71
2018-11-09T04:06:14.587Z,956.72
2018-11-09T04:07:14.626Z,956.76
2018-11-09T04:08:14.591Z,956.76
2018-11-09T04:09:14.593Z,956.7
2018-11-09T04:10:14.622Z,956.75
2018-11-09T04:11:14.597Z,956.7
2018-11-09T04:12:14.596Z,956.72
2018-11-09T04:13:14.650Z,956.7
2018-11-09T04:14:14.604Z,956.71
2018-11-09T04:15:14.608Z,956.65
2018-11-09T04:16:14.605Z,956.66
2018-11-09T04:17:14.606Z,956.64
2018-11-09T04:18:14.608Z,956.65
2018-11-09T04:19:14.612Z,956.64
2018-11-09T04:20:14.611Z,956.62
2018-11-09T04:21:14.612Z,956.6
2018-11-09T04:22:14.615Z,956.64
2018-11-09T04:23:14.614Z,956.63
2018-11-09T04:24:14.617Z,956.63
2018-11-09T04:25:14.620Z,956.69
2018-11-09T04:26:14.622Z,956.73
2018-11-09T04:27:14.621Z,956.74
2018-11-09T04:28:14.673Z,956.79
2018-11-09T04:29:14.677Z,956.82
2018-11-09T04:30:14.626Z,956.8
2018-11-09T04:31:14.628Z,956.81
2018-11-09T04:32:14.628Z,956.8
2018-11-09T04:33:14.632Z,956.77
2018-11-09T04:34:14.634Z,956.77
2018-11-09T04:35:14.637Z,956.76
2018-11-09T04:36:14.638Z,956.76
2018-11-09T04:37:14.638Z,956.76
2018-11-09T04:38:14.640Z,956.78
2018-11-09T04:39:14.641Z,956.73
2018-11-09T04:40:14.642Z,956.68
2018-11-09T04:41:14.646Z,956.67
2018-11-09T04:42:14.647Z,956.7
2018-11-09T04:43:14.699Z,956.66
2018-11-09T04:44:14.651Z,956.66
2018-11-09T04:45:14.650Z,956.68
2018-11-09T04:46:14.655Z,956.72
2018-11-09T04:47:14.656Z,956.72
2018-11-09T04:48:14.659Z,956.76
2018-11-09T04:49:14.660Z,956.77
2018-11-09T04:50:14.661Z,956.76
2018-11-09T04:51:14.663Z,956.79
2018-11-09T04:52:14.665Z,956.72
2018-11-09T04:53:14.669Z,956.76
2018-11-09T04:54:14.669Z,956.76
2018-11-09T04:55:14.672Z,956.7
2018-11-09T04:56:14.677Z,956.75
2018-11-09T04:57:14.675Z,956.76
2018-11-09T04:58:14.730Z,956.73
2018-11-09T04:59:14.679Z,956.73
2018-11-09T05:00:14.680Z,956.74
2018-11-09T05:01:14.681Z,956.74
2018-11-09T05:02:14.686Z,956.76
2018-11-09T05:03:14.688Z,956.73
2018-11-09T05:04:14.688Z,956.71
2018-11-09T05:05:14.691Z,956.7
2018-11-09T05:06:14.696Z,956.75
2018-11-09T05:07:14.693Z,956.72
2018-11-09T05:08:14.752Z,956.71
2018-11-09T05:09:14.697Z,956.71
2018-11-09T05:10:14.700Z,956.74
2018-11-09T05:11:14.700Z,956.73
2018-11-09T05:12:14.714Z,956.67
2018-11-09T05:13:14.705Z,956.7
2018-11-09T05:14:14.706Z,956.73
2018-11-09T05:15:14.708Z,956.73
2018-11-09T05:16:14.710Z,956.74
2018-11-09T05:17:14.756Z,956.74
2018-11-09T05:18:14.715Z,956.75
2018-11-09T05:19:14.716Z,956.73
2018-11-09T05:20:14.718Z,956.78
2018-11-09T05:21:14.726Z,956.75
2018-11-09T05:22:14.722Z,956.73
2018-11-09T05:23:14.774Z,956.79
2018-11-09T05:24:14.725Z,956.76
2018-11-09T05:25:14.727Z,956.79
2018-11-09T05:26:14.729Z,956.81
2018-11-09T05:27:14.732Z,956.79
2018-11-09T05:28:14.785Z,956.79
2018-11-09T05:29:14.786Z,956.77
2018-11-09T05:30:14.739Z,956.8
2018-11-09T05:31:14.740Z,956.83
2018-11-09T05:32:14.742Z,956.83
2018-11-09T05:33:14.743Z,956.76
2018-11-09T05:34:14.748Z,956.8
2018-11-09T05:35:14.751Z,956.86
2018-11-09T05:36:14.749Z,956.87
2018-11-09T05:37:14.753Z,956.84
2018-11-09T05:38:14.755Z,956.89
2018-11-09T05:39:14.757Z,956.85
2018-11-09T05:40:14.758Z,956.85
2018-11-09T05:41:14.769Z,956.86
2018-11-09T05:42:14.761Z,956.89
2018-11-09T05:43:14.815Z,956.87
2018-11-09T05:44:14.766Z,956.89
2018-11-09T05:45:14.768Z,956.94
2018-11-09T05:46:14.771Z,957
2018-11-09T05:47:14.848Z,956.99
2018-11-09T05:48:14.775Z,956.99
2018-11-09T05:49:14.776Z,956.98
2018-11-09T05:50:14.779Z,956.99
2018-11-09T05:51:14.781Z,956.97
2018-11-09T05:52:14.783Z,956.95
2018-11-09T05:53:14.834Z,956.93
2018-11-09T05:54:14.787Z,956.96
2018-11-09T05:55:14.788Z,956.96
2018-11-09T05:56:14.790Z,956.95
2018-11-09T05:57:14.791Z,956.93
2018-11-09T05:58:14.800Z,956.99
2018-11-09T05:59:14.797Z,956.98
2018-11-09T06:00:14.797Z,957.02
2018-11-09T06:01:14.800Z,957.03
2018-11-09T06:02:14.802Z,957.08
2018-11-09T06:03:14.965Z,957.07
2018-11-09T06:04:14.807Z,957.07
2018-11-09T06:05:14.808Z,957.01
2018-11-09T06:06:14.814Z,957.07
2018-11-09T06:07:14.816Z,957.07
2018-11-09T06:08:14.863Z,957.13
2018-11-09T06:09:14.815Z,957.08
2018-11-09T06:10:14.820Z,957.06
2018-11-09T06:11:14.818Z,957
2018-11-09T06:12:14.821Z,957.03
2018-11-09T06:13:14.821Z,957.03
2018-11-09T06:14:14.824Z,957.04
2018-11-09T06:15:14.825Z,957.03
2018-11-09T06:16:14.878Z,957.02
2018-11-09T06:17:14.829Z,957.03
2018-11-09T06:18:14.831Z,957.06
2018-11-09T06:19:14.833Z,957.04
2018-11-09T06:20:14.836Z,957.06
2018-11-09T06:21:14.837Z,957.06
2018-11-09T06:22:14.839Z,957.07
2018-11-09T06:23:14.894Z,957.1
2018-11-09T06:24:14.842Z,957.11
2018-11-09T06:25:14.845Z,957.12
2018-11-09T06:26:14.848Z,957.11
2018-11-09T06:27:14.849Z,957.17
2018-11-09T06:28:14.851Z,957.13
2018-11-09T06:29:14.852Z,957.16
2018-11-09T06:30:14.855Z,957.18
2018-11-09T06:31:14.856Z,957.19
2018-11-09T06:32:14.862Z,957.19
2018-11-09T06:33:14.861Z,957.19
2018-11-09T06:34:14.859Z,957.2
2018-11-09T06:35:14.863Z,957.25
2018-11-09T06:36:14.866Z,957.29
2018-11-09T06:37:14.867Z,957.33
2018-11-09T06:38:14.926Z,957.3
2018-11-09T06:39:14.870Z,957.32
2018-11-09T06:40:14.874Z,957.28
2018-11-09T06:41:14.875Z,957.32
2018-11-09T06:42:14.878Z,957.28
2018-11-09T06:43:14.940Z,957.23
2018-11-09T06:44:14.881Z,957.28
2018-11-09T06:45:15.021Z,957.28
2018-11-09T06:46:14.887Z,957.31
2018-11-09T06:47:14.888Z,957.34
2018-11-09T06:48:14.895Z,957.33
2018-11-09T06:49:14.892Z,957.35
2018-11-09T06:50:14.892Z,957.4
2018-11-09T06:51:14.950Z,957.41
2018-11-09T06:52:14.898Z,957.41
2018-11-09T06:53:14.899Z,957.43
2018-11-09T06:54:14.900Z,957.42
2018-11-09T06:55:14.903Z,957.42
2018-11-09T06:56:14.912Z,957.41
2018-11-09T06:57:14.972Z,957.41
2018-11-09T06:58:15.177Z,957.41
2018-11-09T06:59:14.912Z,957.42
2018-11-09T07:00:14.913Z,957.46
2018-11-09T07:01:14.917Z,957.45
2018-11-09T07:02:14.918Z,957.52
2018-11-09T07:03:14.922Z,957.54
2018-11-09T07:04:15.026Z,957.53
2018-11-09T07:05:14.924Z,957.57
2018-11-09T07:06:14.925Z,957.6
2018-11-09T07:07:14.931Z,957.64
2018-11-09T07:08:14.929Z,957.68
2018-11-09T07:09:14.933Z,957.65
2018-11-09T07:10:14.931Z,957.65
2018-11-09T07:11:14.933Z,957.59
2018-11-09T07:12:15.021Z,957.56
2018-11-09T07:13:14.990Z,957.55
2018-11-09T07:14:14.946Z,957.52
2018-11-09T07:15:14.958Z,957.49
2018-11-09T07:16:14.945Z,957.49
2018-11-09T07:17:14.948Z,957.5
2018-11-09T07:18:15.004Z,957.55
2018-11-09T07:19:14.954Z,957.5
2018-11-09T07:20:14.954Z,957.5
2018-11-09T07:21:14.955Z,957.49
2018-11-09T07:22:14.957Z,957.48
2018-11-09T07:23:14.958Z,957.54
2018-11-09T07:24:14.963Z,957.59
2018-11-09T07:25:14.988Z,957.63
2018-11-09T07:26:14.964Z,957.64
2018-11-09T07:27:14.967Z,957.69
2018-11-09T07:28:15.027Z,957.65
2018-11-09T07:29:14.979Z,957.63
2018-11-09T07:30:14.976Z,957.63
2018-11-09T07:31:15.038Z,957.6
2018-11-09T07:32:14.979Z,957.57
2018-11-09T07:33:14.979Z,957.55
2018-11-09T07:34:14.981Z,957.54
2018-11-09T07:35:14.984Z,957.58
2018-11-09T07:36:15.048Z,957.61
2018-11-09T07:37:15.126Z,957.59
2018-11-09T07:38:14.991Z,957.61
2018-11-09T07:39:14.992Z,957.61
2018-11-09T07:40:14.995Z,957.55
2018-11-09T07:41:14.997Z,957.57
2018-11-09T07:42:14.998Z,957.57
2018-11-09T07:43:15.055Z,957.58
2018-11-09T07:44:15.006Z,957.59
2018-11-09T07:45:15.059Z,957.61
2018-11-09T07:46:15.009Z,957.64
2018-11-09T07:47:15.017Z,957.66
2018-11-09T07:48:15.012Z,957.7
2018-11-09T07:49:15.017Z,957.71
2018-11-09T07:50:15.016Z,957.71
2018-11-09T07:51:15.049Z,957.71
2018-11-09T07:52:15.080Z,957.72
2018-11-09T07:53:15.024Z,957.7
2018-11-09T07:54:15.025Z,957.73
2018-11-09T07:55:15.026Z,957.74
2018-11-09T07:56:15.073Z,957.75
2018-11-09T07:57:15.153Z,957.78
2018-11-09T07:58:15.184Z,957.74
2018-11-09T07:59:15.034Z,957.73
2018-11-09T08:00:15.035Z,957.69
2018-11-09T08:01:15.038Z,957.69
2018-11-09T08:02:15.042Z,957.66
2018-11-09T08:03:15.046Z,957.68
2018-11-09T08:04:15.047Z,957.7
2018-11-09T08:05:15.052Z,957.68
2018-11-09T08:06:15.052Z,957.7
2018-11-09T08:07:15.135Z,957.67
2018-11-09T08:08:15.059Z,957.65
2018-11-09T08:09:15.135Z,957.63
2018-11-09T08:10:15.060Z,957.59
2018-11-09T08:11:15.061Z,957.53
2018-11-09T08:12:15.065Z,957.56
2018-11-09T08:13:15.117Z,957.57
2018-11-09T08:14:15.070Z,957.56
2018-11-09T08:15:15.071Z,957.58
2018-11-09T08:16:15.128Z,957.61
2018-11-09T08:17:15.077Z,957.6
2018-11-09T08:18:15.078Z,957.6
2018-11-09T08:19:15.126Z,957.62
2018-11-09T08:20:15.084Z,957.55
2018-11-09T08:21:15.084Z,957.57
2018-11-09T08:22:15.088Z,957.6
2018-11-09T08:23:15.090Z,957.55
2018-11-09T08:24:15.090Z,957.53
2018-11-09T08:25:15.099Z,957.58
2018-11-09T08:26:15.218Z,957.56
2018-11-09T08:27:15.098Z,957.5
2018-11-09T08:28:15.151Z,957.53
2018-11-09T08:29:15.105Z,957.46
2018-11-09T08:30:15.106Z,957.44
2018-11-09T08:31:15.108Z,957.46
2018-11-09T08:32:15.108Z,957.45
2018-11-09T08:33:15.164Z,957.47
2018-11-09T08:34:15.237Z,957.46
2018-11-09T08:35:15.150Z,957.5
2018-11-09T08:36:15.128Z,957.56
2018-11-09T08:37:15.123Z,957.53
2018-11-09T08:38:15.126Z,957.54
2018-11-09T08:39:15.128Z,957.57
2018-11-09T08:40:15.132Z,957.54
2018-11-09T08:41:15.135Z,957.56
2018-11-09T08:42:15.137Z,957.54
2018-11-09T08:43:15.138Z,957.56
2018-11-09T08:44:15.169Z,957.56
2018-11-09T08:45:15.165Z,957.49
2018-11-09T08:46:15.154Z,957.51
2018-11-09T08:47:15.151Z,957.51
2018-11-09T08:48:15.203Z,957.5
2018-11-09T08:49:15.156Z,957.49
2018-11-09T08:50:15.289Z,957.51
2018-11-09T08:51:15.163Z,957.5
2018-11-09T08:52:15.162Z,957.5
2018-11-09T08:53:15.166Z,957.48
2018-11-09T08:54:15.171Z,957.49
2018-11-09T08:55:15.375Z,957.49
2018-11-09T08:56:15.175Z,957.49
2018-11-09T08:57:15.180Z,957.5
2018-11-09T08:58:15.179Z,957.48
2018-11-09T08:59:15.180Z,957.54
2018-11-09T09:00:15.182Z,957.53
2018-11-09T09:01:15.185Z,957.49
2018-11-09T09:02:15.188Z,957.5
2018-11-09T09:03:15.326Z,957.49
2018-11-09T09:04:15.194Z,957.43
2018-11-09T09:05:15.195Z,957.44
2018-11-09T09:06:15.199Z,957.46
2018-11-09T09:07:15.201Z,957.46
2018-11-09T09:08:15.202Z,957.42
2018-11-09T09:09:15.208Z,957.42
2018-11-09T09:10:15.211Z,957.38
2018-11-09T09:11:15.213Z,957.46
2018-11-09T09:12:15.216Z,957.45
2018-11-09T09:13:15.271Z,957.49
2018-11-09T09:14:15.218Z,957.49
2018-11-09T09:15:15.222Z,957.51
2018-11-09T09:16:15.229Z,957.48
2018-11-09T09:17:15.227Z,957.52
2018-11-09T09:18:15.236Z,957.54
2018-11-09T09:19:15.233Z,957.55
2018-11-09T09:20:15.290Z,957.6
2018-11-09T09:21:15.318Z,957.64
2018-11-09T09:22:15.242Z,957.61
2018-11-09T09:23:15.245Z,957.63
2018-11-09T09:24:15.248Z,957.65
2018-11-09T09:25:15.251Z,957.68
2018-11-09T09:26:15.293Z,957.66
2018-11-09T09:27:15.257Z,957.66
2018-11-09T09:28:15.309Z,957.64
2018-11-09T09:29:15.343Z,957.69
2018-11-09T09:30:15.266Z,957.67
2018-11-09T09:31:15.269Z,957.73
2018-11-09T09:32:15.271Z,957.78
2018-11-09T09:33:15.274Z,957.77
2018-11-09T09:34:15.276Z,957.75
2018-11-09T09:35:15.279Z,957.78
2018-11-09T09:36:15.423Z,957.78
2018-11-09T09:37:15.284Z,957.73
2018-11-09T09:38:15.289Z,957.72
2018-11-09T09:39:15.292Z,957.72
2018-11-09T09:40:15.294Z,957.74
2018-11-09T09:41:15.317Z,957.73
2018-11-09T09:42:15.305Z,957.74
2018-11-09T09:43:15.356Z,957.68
2018-11-09T09:44:15.310Z,957.7
2018-11-09T09:45:15.311Z,957.77
2018-11-09T09:46:15.449Z,957.76
2018-11-09T09:47:15.318Z,957.74
2018-11-09T09:48:15.343Z,957.75
2018-11-09T09:49:15.325Z,957.71
2018-11-09T09:50:15.328Z,957.72
2018-11-09T09:51:15.331Z,957.75
2018-11-09T09:52:15.334Z,957.74
2018-11-09T09:53:15.339Z,957.73
2018-11-09T09:54:15.345Z,957.76
2018-11-09T09:55:15.485Z,957.77
2018-11-09T09:56:15.802Z,957.75
2018-11-09T09:57:15.842Z,957.77
2018-11-09T09:58:15.473Z,957.73
2018-11-09T09:59:15.358Z,957.73
2018-11-09T10:00:15.362Z,957.66
2018-11-09T10:01:15.424Z,957.66
2018-11-09T10:02:15.376Z,957.7
2018-11-09T10:03:15.376Z,957.69
2018-11-09T10:04:15.376Z,957.65
2018-11-09T10:05:15.380Z,957.65
2018-11-09T10:06:15.387Z,957.65
2018-11-09T10:07:15.385Z,957.6
2018-11-09T10:08:15.390Z,957.6
2018-11-09T10:09:15.394Z,957.61
2018-11-09T10:10:15.397Z,957.6
2018-11-09T10:11:15.400Z,957.62
2018-11-09T10:12:15.405Z,957.59
2018-11-09T10:13:15.541Z,957.58
2018-11-09T10:14:15.412Z,957.56
2018-11-09T10:15:15.425Z,957.52
2018-11-09T10:16:15.487Z,957.5
2018-11-09T10:17:15.424Z,957.5
2018-11-09T10:18:15.426Z,957.49
2018-11-09T10:19:15.602Z,957.46
2018-11-09T10:20:15.434Z,957.43
2018-11-09T10:21:15.437Z,957.36
2018-11-09T10:22:15.439Z,957.4
2018-11-09T10:23:15.443Z,957.34
2018-11-09T10:24:15.448Z,957.34
2018-11-09T10:25:15.452Z,957.35
2018-11-09T10:26:15.542Z,957.34
2018-11-09T10:27:15.455Z,957.38
2018-11-09T10:28:15.513Z,957.36
2018-11-09T10:29:15.462Z,957.37
2018-11-09T10:30:15.486Z,957.35
2018-11-09T10:31:15.469Z,957.31
2018-11-09T10:32:15.472Z,957.3
2018-11-09T10:33:15.563Z,957.29
2018-11-09T10:34:15.479Z,957.32
2018-11-09T10:35:15.483Z,957.29
2018-11-09T10:36:15.485Z,957.31
2018-11-09T10:37:15.492Z,957.31
2018-11-09T10:38:15.496Z,957.28
2018-11-09T10:39:15.499Z,957.23
2018-11-09T10:40:15.499Z,957.24
2018-11-09T10:41:15.505Z,957.21
2018-11-09T10:42:15.521Z,957.18
2018-11-09T10:43:15.561Z,957.19
2018-11-09T10:44:15.513Z,957.19
2018-11-09T10:45:15.521Z,957.16
2018-11-09T10:46:15.521Z,957.19
2018-11-09T10:47:15.524Z,957.15
2018-11-09T10:48:15.593Z,957.12
2018-11-09T10:49:15.532Z,957.1
2018-11-09T10:50:15.535Z,957.12
2018-11-09T10:51:15.537Z,957.07
2018-11-09T10:52:15.541Z,957
2018-11-09T10:53:15.549Z,956.95
2018-11-09T10:54:15.551Z,956.97
2018-11-09T10:55:15.613Z,957
2018-11-09T10:56:15.881Z,956.98
2018-11-09T10:57:15.713Z,957
2018-11-09T10:58:15.564Z,956.92
2018-11-09T10:59:15.568Z,956.97
2018-11-09T11:00:15.573Z,956.96
2018-11-09T11:01:15.574Z,956.99
2018-11-09T11:02:15.577Z,956.98
2018-11-09T11:03:15.631Z,956.99
2018-11-09T11:04:15.598Z,956.98
2018-11-09T11:05:15.591Z,956.96
2018-11-09T11:06:15.590Z,956.96
2018-11-09T11:07:15.700Z,956.94
2018-11-09T11:08:16.599Z,956.94
2018-11-09T11:09:15.650Z,956.92
2018-11-09T11:10:15.608Z,956.95
2018-11-09T11:11:15.612Z,956.93
2018-11-09T11:12:15.711Z,956.91
2018-11-09T11:13:15.669Z,956.89
2018-11-09T11:14:15.629Z,956.93
2018-11-09T11:15:15.629Z,956.9
2018-11-09T11:16:15.630Z,956.95
2018-11-09T11:17:15.647Z,956.93
2018-11-09T11:18:15.715Z,957
2018-11-09T11:19:15.644Z,956.96
2018-11-09T11:20:15.648Z,956.94
2018-11-09T11:21:15.651Z,956.93
2018-11-09T11:22:15.656Z,956.93
2018-11-09T11:23:15.708Z,956.89
2018-11-09T11:24:15.663Z,956.86
2018-11-09T11:25:15.669Z,956.9
2018-11-09T11:26:15.672Z,956.86
2018-11-09T11:27:15.704Z,956.84
2018-11-09T11:28:15.763Z,956.88
2018-11-09T11:29:15.684Z,956.84
2018-11-09T11:30:15.697Z,956.77
2018-11-09T11:31:15.690Z,956.83
2018-11-09T11:32:15.694Z,956.83
2018-11-09T11:33:15.897Z,956.77
2018-11-09T11:34:15.705Z,956.76
2018-11-09T11:35:15.714Z,956.77
2018-11-09T11:36:15.712Z,956.76
2018-11-09T11:37:15.718Z,956.77
2018-11-09T11:38:15.771Z,956.7
2018-11-09T11:39:15.726Z,956.72
2018-11-09T11:40:15.826Z,956.71
2018-11-09T11:41:15.735Z,956.71
2018-11-09T11:42:15.739Z,956.66
2018-11-09T11:43:15.894Z,956.65
2018-11-09T11:44:15.759Z,956.66
2018-11-09T11:45:15.751Z,956.64
2018-11-09T11:46:15.759Z,956.62
2018-11-09T11:47:15.760Z,956.64
2018-11-09T11:48:15.768Z,956.63
2018-11-09T11:49:15.766Z,956.66
2018-11-09T11:50:15.772Z,956.59
2018-11-09T11:51:15.778Z,956.61
2018-11-09T11:52:15.781Z,956.55
2018-11-09T11:53:15.792Z,956.57
2018-11-09T11:54:15.788Z,956.58
2018-11-09T11:55:15.835Z,956.55
2018-11-09T11:56:15.795Z,956.53
2018-11-09T11:57:15.803Z,956.5
2018-11-09T11:58:15.860Z,956.5
2018-11-09T11:59:15.810Z,956.51
2018-11-09T12:00:15.814Z,956.52
2018-11-09T12:01:15.880Z,956.51
2018-11-09T12:02:15.900Z,956.49
2018-11-09T12:03:15.835Z,956.47
2018-11-09T12:04:15.830Z,956.44
2018-11-09T12:05:15.836Z,956.45
2018-11-09T12:06:15.839Z,956.47
2018-11-09T12:07:15.846Z,956.45
2018-11-09T12:08:15.851Z,956.48
2018-11-09T12:09:15.853Z,956.49
2018-11-09T12:10:15.867Z,956.51
2018-11-09T12:11:15.871Z,956.53
2018-11-09T12:12:16.318Z,956.51
2018-11-09T12:13:16.120Z,956.51
2018-11-09T12:14:15.875Z,956.52
2018-11-09T12:15:15.884Z,956.46
2018-11-09T12:16:15.884Z,956.43
2018-11-09T12:17:15.888Z,956.38
2018-11-09T12:18:15.892Z,956.39
2018-11-09T12:19:15.927Z,956.37
2018-11-09T12:20:15.906Z,956.35
2018-11-09T12:21:15.907Z,956.31
2018-11-09T12:22:15.911Z,956.29
2018-11-09T12:23:15.913Z,956.3
2018-11-09T12:24:15.920Z,956.29
2018-11-09T12:25:15.925Z,956.33
2018-11-09T12:26:15.928Z,956.29
2018-11-09T12:27:15.931Z,956.31
2018-11-09T12:28:15.987Z,956.29
2018-11-09T12:29:15.956Z,956.32
2018-11-09T12:30:15.946Z,956.3
2018-11-09T12:31:15.949Z,956.28